createdAt,value
2018-08-17T00:00:33.928Z,22.77
2018-08-17T00:01:33.977Z,22.77
2018-08-17T00:02:33.780Z,22.77
2018-08-17T00:03:33.871Z,22.76
2018-08-17T00:04:33.876Z,22.77
2018-08-17T00:05:33.748Z,22.76
2018-08-17T00:06:33.954Z,22.77
2018-08-17T00:07:33.733Z,22.76
2018-08-17T00:08:33.972Z,22.76
2018-08-17T00:09:33.794Z,22.76
2018-08-17T00:10:33.940Z,22.76
2018-08-17T00:11:33.867Z,22.76
2018-08-17T00:12:33.745Z,22.76
2018-08-17T00:13:33.639Z,22.76
2018-08-17T00:14:33.938Z,22.76
2018-08-17T00:15:33.786Z,22.76
2018-08-17T00:16:34.004Z,22.76
2018-08-17T00:17:33.835Z,22.76
2018-08-17T00:18:33.829Z,22.76
2018-08-17T00:19:33.745Z,22.76
2018-08-17T00:20:33.742Z,22.76
2018-08-17T00:21:33.982Z,22.76
2018-08-17T00:22:33.795Z,22.76
2018-08-17T00:23:33.952Z,22.76
2018-08-17T00:24:33.914Z,22.76
2018-08-17T00:25:33.839Z,22.76
2018-08-17T00:26:33.966Z,22.76
2018-08-17T00:27:33.879Z,22.76
2018-08-17T00:28:33.805Z,22.76
2018-08-17T00:29:33.896Z,22.76
2018-08-17T00:30:33.861Z,22.76
2018-08-17T00:31:33.770Z,22.75
2018-08-17T00:32:33.731Z,22.76
2018-08-17T00:33:33.997Z,22.76
2018-08-17T00:34:34.105Z,22.76
2018-08-17T00:35:33.930Z,22.76
2018-08-17T00:36:34.036Z,22.76
2018-08-17T00:37:33.758Z,22.76
2018-08-17T00:38:34.040Z,22.76
2018-08-17T00:39:33.823Z,22.76
2018-08-17T00:40:33.820Z,22.76
2018-08-17T00:41:33.751Z,22.76
2018-08-17T00:42:33.786Z,22.76
2018-08-17T00:43:33.805Z,22.76
2018-08-17T00:44:33.721Z,22.76
2018-08-17T00:45:33.758Z,22.75
2018-08-17T00:46:33.973Z,22.76
2018-08-17T00:47:33.859Z,22.76
2018-08-17T00:48:33.819Z,22.75
2018-08-17T00:49:33.789Z,22.75
2018-08-17T00:50:33.902Z,22.76
2018-08-17T00:51:33.737Z,22.75
2018-08-17T00:52:33.871Z,22.75
2018-08-17T00:53:33.928Z,22.76
2018-08-17T00:54:33.753Z,22.75
2018-08-17T00:55:34.172Z,22.76
2018-08-17T00:56:33.876Z,22.75
2018-08-17T00:57:33.810Z,22.75
2018-08-17T00:58:33.857Z,22.75
2018-08-17T00:59:33.924Z,22.75
2018-08-17T01:00:33.819Z,22.75
2018-08-17T01:01:33.663Z,22.74
2018-08-17T01:02:33.698Z,22.74
2018-08-17T01:03:33.883Z,22.75
2018-08-17T01:04:33.961Z,22.74
2018-08-17T01:05:33.962Z,22.75
2018-08-17T01:06:34.016Z,22.75
2018-08-17T01:07:33.707Z,22.75
2018-08-17T01:08:33.823Z,22.74
2018-08-17T01:09:33.916Z,22.74
2018-08-17T01:10:33.987Z,22.76
2018-08-17T01:11:33.822Z,22.75
2018-08-17T01:12:33.733Z,22.74
2018-08-17T01:13:33.758Z,22.74
2018-08-17T01:14:33.946Z,22.74
2018-08-17T01:15:34.075Z,22.74
2018-08-17T01:16:33.723Z,22.74
2018-08-17T01:17:33.987Z,22.74
2018-08-17T01:18:33.873Z,22.75
2018-08-17T01:19:33.721Z,22.75
2018-08-17T01:20:33.662Z,22.75
2018-08-17T01:21:33.879Z,22.75
2018-08-17T01:22:33.816Z,22.74
2018-08-17T01:23:33.693Z,22.74
2018-08-17T01:24:33.858Z,22.75
2018-08-17T01:25:33.683Z,22.74
2018-08-17T01:26:33.831Z,22.74
2018-08-17T01:27:33.751Z,22.74
2018-08-17T01:28:33.761Z,22.74
2018-08-17T01:29:33.750Z,22.74
2018-08-17T01:30:33.734Z,22.73
2018-08-17T01:31:33.902Z,22.74
2018-08-17T01:32:33.778Z,22.73
2018-08-17T01:33:33.745Z,22.73
2018-08-17T01:34:33.758Z,22.74
2018-08-17T01:35:33.687Z,22.74
2018-08-17T01:36:33.865Z,22.73
2018-08-17T01:37:33.809Z,22.73
2018-08-17T01:38:34.004Z,22.73
2018-08-17T01:39:33.781Z,22.74
2018-08-17T01:40:33.908Z,22.73
2018-08-17T01:41:33.770Z,22.73
2018-08-17T01:42:33.822Z,22.74
2018-08-17T01:43:33.711Z,22.74
2018-08-17T01:44:33.679Z,22.73
2018-08-17T01:45:33.888Z,22.73
2018-08-17T01:46:34.118Z,22.73
2018-08-17T01:47:33.712Z,22.74
2018-08-17T01:48:33.806Z,22.73
2018-08-17T01:49:33.879Z,22.74
2018-08-17T01:50:33.826Z,22.73
2018-08-17T01:51:34.221Z,22.73
2018-08-17T01:52:33.742Z,22.73
2018-08-17T01:53:33.718Z,22.74
2018-08-17T01:54:33.952Z,22.74
2018-08-17T01:55:34.325Z,22.73
2018-08-17T01:56:34.001Z,22.73
2018-08-17T01:57:33.899Z,22.74
2018-08-17T01:58:34.033Z,22.73
2018-08-17T01:59:33.860Z,22.72
2018-08-17T02:00:33.781Z,22.72
2018-08-17T02:01:33.795Z,22.72
2018-08-17T02:02:33.782Z,22.72
2018-08-17T02:03:34.030Z,22.73
2018-08-17T02:04:33.774Z,22.72
2018-08-17T02:05:33.853Z,22.72
2018-08-17T02:06:33.691Z,22.73
2018-08-17T02:07:33.862Z,22.72
2018-08-17T02:08:33.997Z,22.73
2018-08-17T02:09:33.737Z,22.73
2018-08-17T02:10:33.932Z,22.72
2018-08-17T02:11:34.041Z,22.72
2018-08-17T02:12:33.738Z,22.73
2018-08-17T02:13:33.692Z,22.72
2018-08-17T02:14:34.228Z,22.72
2018-08-17T02:15:33.969Z,22.72
2018-08-17T02:16:33.868Z,22.72
2018-08-17T02:17:33.695Z,22.72
2018-08-17T02:18:33.744Z,22.72
2018-08-17T02:19:33.922Z,22.73
2018-08-17T02:20:33.758Z,22.72
2018-08-17T02:21:33.738Z,22.72
2018-08-17T02:22:34.092Z,22.73
2018-08-17T02:23:33.653Z,22.71
2018-08-17T02:24:34.753Z,22.72
2018-08-17T02:25:33.803Z,22.73
2018-08-17T02:26:33.793Z,22.72
2018-08-17T02:27:33.744Z,22.71
2018-08-17T02:28:33.786Z,22.72
2018-08-17T02:29:33.839Z,22.72
2018-08-17T02:30:33.873Z,22.71
2018-08-17T02:31:34.002Z,22.71
2018-08-17T02:32:33.780Z,22.71
2018-08-17T02:33:33.931Z,22.71
2018-08-17T02:34:33.871Z,22.72
2018-08-17T02:35:33.635Z,22.72
2018-08-17T02:36:33.917Z,22.71
2018-08-17T02:37:33.963Z,22.71
2018-08-17T02:38:33.863Z,22.71
2018-08-17T02:39:33.710Z,22.71
2018-08-17T02:40:33.739Z,22.71
2018-08-17T02:41:33.754Z,22.71
2018-08-17T02:42:33.936Z,22.71
2018-08-17T02:43:33.675Z,22.7
2018-08-17T02:44:33.840Z,22.7
2018-08-17T02:45:33.680Z,22.7
2018-08-17T02:46:33.716Z,22.7
2018-08-17T02:47:33.751Z,22.7
2018-08-17T02:48:33.691Z,22.7
2018-08-17T02:49:33.773Z,22.7
2018-08-17T02:50:33.703Z,22.7
2018-08-17T02:51:33.793Z,22.7
2018-08-17T02:52:33.733Z,22.7
2018-08-17T02:53:33.807Z,22.7
2018-08-17T02:54:33.730Z,22.7
2018-08-17T02:55:33.868Z,22.7
2018-08-17T02:56:33.874Z,22.7
2018-08-17T02:57:33.717Z,22.7
2018-08-17T02:58:33.775Z,22.7
2018-08-17T02:59:34.017Z,22.7
2018-08-17T03:00:33.807Z,22.7
2018-08-17T03:01:33.951Z,22.7
2018-08-17T03:02:33.981Z,22.7
2018-08-17T03:03:33.775Z,22.7
2018-08-17T03:04:33.943Z,22.7
2018-08-17T03:05:33.853Z,22.7
2018-08-17T03:06:33.912Z,22.7
2018-08-17T03:07:33.782Z,22.7
2018-08-17T03:08:34.223Z,22.7
2018-08-17T03:09:33.913Z,22.7
2018-08-17T03:10:33.838Z,22.7
2018-08-17T03:11:33.827Z,22.69
2018-08-17T03:12:33.898Z,22.7
2018-08-17T03:13:33.753Z,22.69
2018-08-17T03:14:34.032Z,22.7
2018-08-17T03:15:33.765Z,22.7
2018-08-17T03:16:33.830Z,22.69
2018-08-17T03:17:34.194Z,22.69
2018-08-17T03:18:34.020Z,22.69
2018-08-17T03:19:33.779Z,22.68
2018-08-17T03:20:33.999Z,22.69
2018-08-17T03:21:33.762Z,22.7
2018-08-17T03:22:34.197Z,22.69
2018-08-17T03:23:33.634Z,22.69
2018-08-17T03:24:33.923Z,22.68
2018-08-17T03:25:33.780Z,22.69
2018-08-17T03:26:33.790Z,22.68
2018-08-17T03:27:33.791Z,22.69
2018-08-17T03:28:33.891Z,22.69
2018-08-17T03:29:33.992Z,22.69
2018-08-17T03:30:33.949Z,22.68
2018-08-17T03:31:33.792Z,22.68
2018-08-17T03:32:33.893Z,22.68
2018-08-17T03:33:34.142Z,22.68
2018-08-17T03:34:33.823Z,22.67
2018-08-17T03:35:34.015Z,22.68
2018-08-17T03:36:33.836Z,22.67
2018-08-17T03:37:33.735Z,22.68
2018-08-17T03:38:33.865Z,22.68
2018-08-17T03:39:33.816Z,22.67
2018-08-17T03:40:33.894Z,22.68
2018-08-17T03:41:33.713Z,22.67
2018-08-17T03:42:33.788Z,22.67
2018-08-17T03:43:33.741Z,22.67
2018-08-17T03:44:33.775Z,22.67
2018-08-17T03:45:33.779Z,22.67
2018-08-17T03:46:33.721Z,22.67
2018-08-17T03:47:33.889Z,22.67
2018-08-17T03:48:33.744Z,22.68
2018-08-17T03:49:33.927Z,22.67
2018-08-17T03:50:33.681Z,22.66
2018-08-17T03:51:33.668Z,22.67
2018-08-17T03:52:33.641Z,22.67
2018-08-17T03:53:33.852Z,22.68
2018-08-17T03:54:33.784Z,22.69
2018-08-17T03:55:33.843Z,22.68
2018-08-17T03:56:33.732Z,22.68
2018-08-17T03:57:33.656Z,22.68
2018-08-17T03:58:33.855Z,22.67
2018-08-17T03:59:33.700Z,22.67
2018-08-17T04:00:33.934Z,22.67
2018-08-17T04:01:33.708Z,22.67
2018-08-17T04:02:33.721Z,22.66
2018-08-17T04:03:33.689Z,22.67
2018-08-17T04:04:33.826Z,22.67
2018-08-17T04:05:33.890Z,22.67
2018-08-17T04:06:33.879Z,22.67
2018-08-17T04:07:33.894Z,22.67
2018-08-17T04:08:33.677Z,22.67
2018-08-17T04:09:33.651Z,22.67
2018-08-17T04:10:33.858Z,22.68
2018-08-17T04:11:33.964Z,22.68
2018-08-17T04:12:33.860Z,22.67
2018-08-17T04:13:33.920Z,22.67
2018-08-17T04:14:33.792Z,22.66
2018-08-17T04:15:34.556Z,22.67
2018-08-17T04:16:33.836Z,22.66
2018-08-17T04:17:33.715Z,22.65
2018-08-17T04:18:33.711Z,22.65
2018-08-17T04:19:33.831Z,22.66
2018-08-17T04:20:33.730Z,22.65
2018-08-17T04:21:34.023Z,22.65
2018-08-17T04:22:33.771Z,22.66
2018-08-17T04:23:33.700Z,22.66
2018-08-17T04:24:34.144Z,22.65
2018-08-17T04:25:34.035Z,22.66
2018-08-17T04:26:33.692Z,22.66
2018-08-17T04:27:33.738Z,22.66
2018-08-17T04:28:33.998Z,22.66
2018-08-17T04:29:33.872Z,22.67
2018-08-17T04:30:33.881Z,22.66
2018-08-17T04:31:33.808Z,22.66
2018-08-17T04:32:33.807Z,22.66
2018-08-17T04:33:33.993Z,22.66
2018-08-17T04:34:33.936Z,22.66
2018-08-17T04:35:34.348Z,22.66
2018-08-17T04:36:34.056Z,22.66
2018-08-17T04:37:33.784Z,22.65
2018-08-17T04:38:33.796Z,22.65
2018-08-17T04:39:33.849Z,22.65
2018-08-17T04:40:33.716Z,22.65
2018-08-17T04:41:33.680Z,22.65
2018-08-17T04:42:33.927Z,22.65
2018-08-17T04:43:34.132Z,22.65
2018-08-17T04:44:33.885Z,22.65
2018-08-17T04:45:33.811Z,22.65
2018-08-17T04:46:33.573Z,22.66
2018-08-17T04:47:33.916Z,22.65
2018-08-17T04:48:34.087Z,22.65
2018-08-17T04:49:33.805Z,22.65
2018-08-17T04:50:33.920Z,22.65
2018-08-17T04:51:33.831Z,22.65
2018-08-17T04:52:33.761Z,22.65
2018-08-17T04:53:33.948Z,22.65
2018-08-17T04:54:33.854Z,22.65
2018-08-17T04:55:33.692Z,22.64
2018-08-17T04:56:34.091Z,22.65
2018-08-17T04:57:33.880Z,22.64
2018-08-17T04:58:33.891Z,22.64
2018-08-17T04:59:33.878Z,22.65
2018-08-17T05:00:33.805Z,22.64
2018-08-17T05:01:33.875Z,22.65
2018-08-17T05:02:33.934Z,22.65
2018-08-17T05:03:34.075Z,22.65
2018-08-17T05:04:33.660Z,22.64
2018-08-17T05:05:33.937Z,22.64
2018-08-17T05:06:33.743Z,22.64
2018-08-17T05:07:33.806Z,22.65
2018-08-17T05:08:33.768Z,22.64
2018-08-17T05:09:33.699Z,22.65
2018-08-17T05:10:33.788Z,22.64
2018-08-17T05:11:33.847Z,22.65
2018-08-17T05:12:33.719Z,22.64
2018-08-17T05:13:33.595Z,22.64
2018-08-17T05:14:33.775Z,22.64
2018-08-17T05:15:33.872Z,22.64
2018-08-17T05:16:33.622Z,22.64
2018-08-17T05:17:33.864Z,22.64
2018-08-17T05:18:33.689Z,22.64
2018-08-17T05:19:33.849Z,22.64
2018-08-17T05:20:33.600Z,22.64
2018-08-17T05:21:34.540Z,22.64
2018-08-17T05:22:33.711Z,22.64
2018-08-17T05:23:33.678Z,22.64
2018-08-17T05:24:33.699Z,22.64
2018-08-17T05:25:33.618Z,22.64
2018-08-17T05:26:34.069Z,22.64
2018-08-17T05:27:33.876Z,22.64
2018-08-17T05:28:33.724Z,22.64
2018-08-17T05:29:33.762Z,22.64
2018-08-17T05:30:33.784Z,22.64
2018-08-17T05:31:33.858Z,22.64
2018-08-17T05:32:33.737Z,22.63
2018-08-17T05:33:33.807Z,22.64
2018-08-17T05:34:33.773Z,22.64
2018-08-17T05:35:33.752Z,22.64
2018-08-17T05:36:33.789Z,22.64
2018-08-17T05:37:33.793Z,22.63
2018-08-17T05:38:33.784Z,22.64
2018-08-17T05:39:33.850Z,22.64
2018-08-17T05:40:33.731Z,22.63
2018-08-17T05:41:33.733Z,22.64
2018-08-17T05:42:33.842Z,22.63
2018-08-17T05:43:33.766Z,22.63
2018-08-17T05:44:33.882Z,22.64
2018-08-17T05:45:33.844Z,22.64
2018-08-17T05:46:33.895Z,22.64
2018-08-17T05:47:33.694Z,22.64
2018-08-17T05:48:33.905Z,22.63
2018-08-17T05:49:33.769Z,22.64
2018-08-17T05:50:33.860Z,22.63
2018-08-17T05:51:33.785Z,22.64
2018-08-17T05:52:33.714Z,22.64
2018-08-17T05:53:33.818Z,22.63
2018-08-17T05:54:33.746Z,22.63
2018-08-17T05:55:33.746Z,22.63
2018-08-17T05:56:34.238Z,22.64
2018-08-17T05:57:33.769Z,22.63
2018-08-17T05:58:33.755Z,22.63
2018-08-17T05:59:33.657Z,22.64
2018-08-17T06:00:33.581Z,22.63
2018-08-17T06:01:33.879Z,22.63
2018-08-17T06:02:33.803Z,22.62
2018-08-17T06:03:33.953Z,22.59
2018-08-17T06:04:33.853Z,22.55
2018-08-17T06:05:33.817Z,22.53
2018-08-17T06:06:33.795Z,22.51
2018-08-17T06:07:33.795Z,22.5
2018-08-17T06:08:33.886Z,22.49
2018-08-17T06:09:33.971Z,22.49
2018-08-17T06:10:33.795Z,22.48
2018-08-17T06:11:34.152Z,22.48
2018-08-17T06:12:33.704Z,22.47
2018-08-17T06:13:33.723Z,22.47
2018-08-17T06:14:33.737Z,22.42
2018-08-17T06:15:33.750Z,22.41
2018-08-17T06:16:33.827Z,22.4
2018-08-17T06:17:33.942Z,22.42
2018-08-17T06:18:33.828Z,22.43
2018-08-17T06:19:33.761Z,22.46
2018-08-17T06:20:34.794Z,22.43
2018-08-17T06:21:33.827Z,22.41
2018-08-17T06:22:33.860Z,22.42
2018-08-17T06:23:33.712Z,22.41
2018-08-17T06:24:33.654Z,22.41
2018-08-17T06:25:33.769Z,22.41
2018-08-17T06:26:33.693Z,22.42
2018-08-17T06:27:33.844Z,22.42
2018-08-17T06:28:33.708Z,22.43
2018-08-17T06:29:33.533Z,22.46
2018-08-17T06:30:33.721Z,22.44
2018-08-17T06:31:34.000Z,22.46
2018-08-17T06:32:33.800Z,22.47
2018-08-17T06:33:33.644Z,22.48
2018-08-17T06:34:33.777Z,22.5
2018-08-17T06:35:33.712Z,22.5
2018-08-17T06:36:33.803Z,22.51
2018-08-17T06:37:33.722Z,22.51
2018-08-17T06:38:33.583Z,22.52
2018-08-17T06:39:33.679Z,22.53
2018-08-17T06:40:33.722Z,22.53
2018-08-17T06:41:33.697Z,22.53
2018-08-17T06:42:34.360Z,22.53
2018-08-17T06:43:33.674Z,22.54
2018-08-17T06:44:33.782Z,22.55
2018-08-17T06:45:33.789Z,22.55
2018-08-17T06:46:33.612Z,22.55
2018-08-17T06:47:33.811Z,22.56
2018-08-17T06:48:33.619Z,22.56
2018-08-17T06:49:33.612Z,22.56
2018-08-17T06:50:34.085Z,22.57
2018-08-17T06:51:33.767Z,22.58
2018-08-17T06:52:33.663Z,22.59
2018-08-17T06:53:33.775Z,22.58
2018-08-17T06:54:33.740Z,22.58
2018-08-17T06:55:33.757Z,22.58
2018-08-17T06:56:33.923Z,22.59
2018-08-17T06:57:34.207Z,22.58
2018-08-17T06:58:33.724Z,22.58
2018-08-17T06:59:33.582Z,22.59
2018-08-17T07:00:33.740Z,22.58
2018-08-17T07:01:33.716Z,22.59
2018-08-17T07:02:34.213Z,22.58
2018-08-17T07:03:33.837Z,22.59
2018-08-17T07:04:34.014Z,22.59
2018-08-17T07:05:33.809Z,22.59
2018-08-17T07:06:33.870Z,22.58
2018-08-17T07:07:34.190Z,22.58
2018-08-17T07:08:34.484Z,22.58
2018-08-17T07:09:34.346Z,22.58
2018-08-17T07:10:34.109Z,22.58
2018-08-17T07:11:33.694Z,22.59
2018-08-17T07:12:33.716Z,22.58
2018-08-17T07:13:34.250Z,22.58
2018-08-17T07:14:33.858Z,22.59
2018-08-17T07:15:33.899Z,22.59
2018-08-17T07:16:34.033Z,22.58
2018-08-17T07:17:34.308Z,22.59
2018-08-17T07:18:34.109Z,22.58
2018-08-17T07:19:33.970Z,22.58
2018-08-17T07:20:33.873Z,22.59
2018-08-17T07:21:34.137Z,22.58
2018-08-17T07:22:34.252Z,22.59
2018-08-17T07:23:33.793Z,22.59
2018-08-17T07:24:33.878Z,22.59
2018-08-17T07:25:33.909Z,22.58
2018-08-17T07:26:33.801Z,22.59
2018-08-17T07:27:33.745Z,22.59
2018-08-17T07:28:33.715Z,22.59
2018-08-17T07:29:33.725Z,22.59
2018-08-17T07:30:33.834Z,22.59
2018-08-17T07:31:33.867Z,22.58
2018-08-17T07:32:34.323Z,22.58
2018-08-17T07:33:33.742Z,22.59
2018-08-17T07:34:33.685Z,22.58
2018-08-17T07:35:34.162Z,22.59
2018-08-17T07:36:33.848Z,22.6
2018-08-17T07:37:33.744Z,22.59
2018-08-17T07:38:33.811Z,22.59
2018-08-17T07:39:33.636Z,22.58
2018-08-17T07:40:33.766Z,22.59
2018-08-17T07:41:33.975Z,22.59
2018-08-17T07:42:33.619Z,22.59
2018-08-17T07:43:33.622Z,22.6
2018-08-17T07:44:33.690Z,22.59
2018-08-17T07:45:33.669Z,22.59
2018-08-17T07:46:33.755Z,22.58
2018-08-17T07:47:33.692Z,22.6
2018-08-17T07:48:33.734Z,22.6
2018-08-17T07:49:33.699Z,22.6
2018-08-17T07:50:33.871Z,22.6
2018-08-17T07:51:33.720Z,22.6
2018-08-17T07:52:33.605Z,22.6
2018-08-17T07:53:33.589Z,22.6
2018-08-17T07:54:33.676Z,22.6
2018-08-17T07:55:33.911Z,22.6
2018-08-17T07:56:33.780Z,22.6
2018-08-17T07:57:33.804Z,22.6
2018-08-17T07:58:33.761Z,22.6
2018-08-17T07:59:33.839Z,22.6
2018-08-17T08:00:33.775Z,22.6
2018-08-17T08:01:33.864Z,22.61
2018-08-17T08:02:33.807Z,22.6
2018-08-17T08:03:33.729Z,22.62
2018-08-17T08:04:33.839Z,22.62
2018-08-17T08:05:33.813Z,22.61
2018-08-17T08:06:33.891Z,22.61
2018-08-17T08:07:33.757Z,22.61
2018-08-17T08:08:33.883Z,22.61
2018-08-17T08:09:33.745Z,22.61
2018-08-17T08:10:33.591Z,22.61
2018-08-17T08:11:33.781Z,22.61
2018-08-17T08:12:33.853Z,22.61
2018-08-17T08:13:34.076Z,22.61
2018-08-17T08:14:33.753Z,22.61
2018-08-17T08:15:33.772Z,22.61
2018-08-17T08:16:33.742Z,22.61
2018-08-17T08:17:33.628Z,22.61
2018-08-17T08:18:33.816Z,22.61
2018-08-17T08:19:33.824Z,22.61
2018-08-17T08:20:33.675Z,22.61
2018-08-17T08:21:33.773Z,22.61
2018-08-17T08:22:33.896Z,22.61
2018-08-17T08:23:33.693Z,22.61
2018-08-17T08:24:33.825Z,22.61
2018-08-17T08:25:33.770Z,22.61
2018-08-17T08:26:33.522Z,22.61
2018-08-17T08:27:33.813Z,22.61
2018-08-17T08:28:33.681Z,22.61
2018-08-17T08:29:33.830Z,22.61
2018-08-17T08:30:33.754Z,22.61
2018-08-17T08:31:33.733Z,22.61
2018-08-17T08:32:34.261Z,22.61
2018-08-17T08:33:33.824Z,22.61
2018-08-17T08:34:33.700Z,22.61
2018-08-17T08:35:33.760Z,22.62
2018-08-17T08:36:33.780Z,22.61
2018-08-17T08:37:33.616Z,22.61
2018-08-17T08:38:33.723Z,22.61
2018-08-17T08:39:33.683Z,22.61
2018-08-17T08:40:33.718Z,22.62
2018-08-17T08:41:33.950Z,22.61
2018-08-17T08:42:33.789Z,22.61
2018-08-17T08:43:33.810Z,22.61
2018-08-17T08:44:33.784Z,22.62
2018-08-17T08:45:34.339Z,22.61
2018-08-17T08:46:34.295Z,22.61
2018-08-17T08:47:33.685Z,22.61
2018-08-17T08:48:33.769Z,22.61
2018-08-17T08:49:33.671Z,22.62
2018-08-17T08:50:33.712Z,22.61
2018-08-17T08:51:33.844Z,22.61
2018-08-17T08:52:33.844Z,22.61
2018-08-17T08:53:33.810Z,22.61
2018-08-17T08:54:33.749Z,22.61
2018-08-17T08:55:33.702Z,22.61
2018-08-17T08:56:33.772Z,22.61
2018-08-17T08:57:33.651Z,22.61
2018-08-17T08:58:33.792Z,22.61
2018-08-17T08:59:33.762Z,22.61
2018-08-17T09:00:33.663Z,22.61
2018-08-17T09:01:33.871Z,22.61
2018-08-17T09:02:33.649Z,22.61
2018-08-17T09:03:33.844Z,22.61
2018-08-17T09:04:33.679Z,22.61
2018-08-17T09:05:33.685Z,22.61
2018-08-17T09:06:33.624Z,22.61
2018-08-17T09:07:33.757Z,22.61
2018-08-17T09:08:33.726Z,22.61
2018-08-17T09:09:33.881Z,22.61
2018-08-17T09:10:33.803Z,22.61
2018-08-17T09:11:33.593Z,22.61
2018-08-17T09:12:33.733Z,22.61
2018-08-17T09:13:34.059Z,22.6
2018-08-17T09:14:33.675Z,22.61
2018-08-17T09:15:33.735Z,22.61
2018-08-17T09:16:33.724Z,22.61
2018-08-17T09:17:33.684Z,22.61
2018-08-17T09:18:33.895Z,22.61
2018-08-17T09:19:33.865Z,22.61
2018-08-17T09:20:33.965Z,22.61
2018-08-17T09:21:33.855Z,22.61
2018-08-17T09:22:33.677Z,22.61
2018-08-17T09:23:33.861Z,22.61
2018-08-17T09:24:33.764Z,22.61
2018-08-17T09:25:33.970Z,22.61
2018-08-17T09:26:33.874Z,22.61
2018-08-17T09:27:33.735Z,22.61
2018-08-17T09:28:33.741Z,22.6
2018-08-17T09:29:33.578Z,22.61
2018-08-17T09:30:33.619Z,22.6
2018-08-17T09:31:33.818Z,22.61
2018-08-17T09:32:33.800Z,22.61
2018-08-17T09:33:33.741Z,22.61
2018-08-17T09:34:33.744Z,22.6
2018-08-17T09:35:33.714Z,22.61
2018-08-17T09:36:33.831Z,22.6
2018-08-17T09:37:33.700Z,22.61
2018-08-17T09:38:33.893Z,22.6
2018-08-17T09:39:33.743Z,22.6
2018-08-17T09:40:33.727Z,22.61
2018-08-17T09:41:34.021Z,22.61
2018-08-17T09:42:33.555Z,22.61
2018-08-17T09:43:33.855Z,22.61
2018-08-17T09:44:33.777Z,22.61
2018-08-17T09:45:33.806Z,22.61
2018-08-17T09:46:33.746Z,22.6
2018-08-17T09:47:33.711Z,22.6
2018-08-17T09:48:33.659Z,22.6
2018-08-17T09:49:33.998Z,22.6
2018-08-17T09:50:33.805Z,22.61
2018-08-17T09:51:33.577Z,22.6
2018-08-17T09:52:33.805Z,22.6
2018-08-17T09:53:33.726Z,22.61
2018-08-17T09:54:33.556Z,22.6
2018-08-17T09:55:33.752Z,22.61
2018-08-17T09:56:33.889Z,22.6
2018-08-17T09:57:34.263Z,22.6
2018-08-17T09:58:33.801Z,22.61
2018-08-17T09:59:33.797Z,22.61
2018-08-17T10:00:33.767Z,22.61
2018-08-17T10:01:33.778Z,22.61
2018-08-17T10:02:33.586Z,22.61
2018-08-17T10:03:33.767Z,22.6
2018-08-17T10:04:33.800Z,22.62
2018-08-17T10:05:33.702Z,22.61
2018-08-17T10:06:33.861Z,22.62
2018-08-17T10:07:33.863Z,22.62
2018-08-17T10:08:33.814Z,22.61
2018-08-17T10:09:34.730Z,22.62
2018-08-17T10:10:33.883Z,22.62
2018-08-17T10:11:33.597Z,22.61
2018-08-17T10:12:33.710Z,22.62
2018-08-17T10:13:33.669Z,22.61
2018-08-17T10:14:33.744Z,22.61
2018-08-17T10:15:33.642Z,22.62
2018-08-17T10:16:33.749Z,22.62
2018-08-17T10:17:33.888Z,22.61
2018-08-17T10:18:33.828Z,22.62
2018-08-17T10:19:33.729Z,22.62
2018-08-17T10:20:33.528Z,22.62
2018-08-17T10:21:36.387Z,22.62
2018-08-17T10:22:33.833Z,22.62
2018-08-17T10:23:33.777Z,22.62
2018-08-17T10:24:33.782Z,22.62
2018-08-17T10:25:33.842Z,22.62
2018-08-17T10:26:33.525Z,22.62
2018-08-17T10:27:33.684Z,22.62
2018-08-17T10:28:33.688Z,22.62
2018-08-17T10:29:33.512Z,22.61
2018-08-17T10:30:33.559Z,22.62
2018-08-17T10:31:33.726Z,22.62
2018-08-17T10:32:33.833Z,22.62
2018-08-17T10:33:33.727Z,22.62
2018-08-17T10:34:33.636Z,22.61
2018-08-17T10:35:33.605Z,22.62
2018-08-17T10:36:33.912Z,22.62
2018-08-17T10:37:33.639Z,22.64
2018-08-17T10:38:33.857Z,22.65
2018-08-17T10:39:33.726Z,22.66
2018-08-17T10:40:33.976Z,22.67
2018-08-17T10:41:33.803Z,22.68
2018-08-17T10:42:33.917Z,22.7
2018-08-17T10:43:34.214Z,22.71
2018-08-17T10:44:33.843Z,22.72
2018-08-17T10:45:34.091Z,22.73
2018-08-17T10:46:34.303Z,22.75
2018-08-17T10:47:33.642Z,22.73
2018-08-17T10:48:34.009Z,22.74
2018-08-17T10:49:33.908Z,22.72
2018-08-17T10:50:33.632Z,22.71
2018-08-17T10:51:34.017Z,22.71
2018-08-17T10:52:33.908Z,22.71
2018-08-17T10:53:33.674Z,22.7
2018-08-17T10:54:33.763Z,22.7
2018-08-17T10:55:34.439Z,22.7
2018-08-17T10:56:33.554Z,22.7
2018-08-17T10:57:35.070Z,22.7
2018-08-17T10:58:34.181Z,22.7
2018-08-17T10:59:33.794Z,22.69
2018-08-17T11:00:34.309Z,22.69
2018-08-17T11:01:33.735Z,22.69
2018-08-17T11:02:33.845Z,22.69
2018-08-17T11:03:33.597Z,22.69
2018-08-17T11:04:33.852Z,22.69
2018-08-17T11:05:33.691Z,22.68
2018-08-17T11:06:33.787Z,22.68
2018-08-17T11:07:34.055Z,22.69
2018-08-17T11:08:33.718Z,22.68
2018-08-17T11:09:33.934Z,22.68
2018-08-17T11:10:33.787Z,22.68
2018-08-17T11:11:33.764Z,22.68
2018-08-17T11:12:33.770Z,22.68
2018-08-17T11:13:34.279Z,22.68
2018-08-17T11:14:33.512Z,22.68
2018-08-17T11:15:33.567Z,22.68
2018-08-17T11:16:33.727Z,22.68
2018-08-17T11:17:34.090Z,22.67
2018-08-17T11:18:33.796Z,22.68
2018-08-17T11:19:33.786Z,22.68
2018-08-17T11:20:33.786Z,22.68
2018-08-17T11:21:33.864Z,22.67
2018-08-17T11:22:33.860Z,22.68
2018-08-17T11:23:33.739Z,22.68
2018-08-17T11:24:33.744Z,22.67
2018-08-17T11:25:33.740Z,22.67
2018-08-17T11:26:34.136Z,22.67
2018-08-17T11:27:33.824Z,22.67
2018-08-17T11:28:34.372Z,22.67
2018-08-17T11:29:33.595Z,22.67
2018-08-17T11:30:34.071Z,22.67
2018-08-17T11:31:33.742Z,22.67
2018-08-17T11:32:33.648Z,22.67
2018-08-17T11:33:33.647Z,22.67
2018-08-17T11:34:33.528Z,22.67
2018-08-17T11:35:33.876Z,22.67
2018-08-17T11:36:33.701Z,22.67
2018-08-17T11:37:34.297Z,22.67
2018-08-17T11:38:33.697Z,22.67
2018-08-17T11:39:33.708Z,22.67
2018-08-17T11:40:33.749Z,22.67
2018-08-17T11:41:34.591Z,22.67
2018-08-17T11:42:33.606Z,22.67
2018-08-17T11:43:33.857Z,22.67
2018-08-17T11:44:33.983Z,22.66
2018-08-17T11:45:34.167Z,22.67
2018-08-17T11:46:33.579Z,22.68
2018-08-17T11:47:33.584Z,22.68
2018-08-17T11:48:33.635Z,22.67
2018-08-17T11:49:33.611Z,22.66
2018-08-17T11:50:34.009Z,22.66
2018-08-17T11:51:33.817Z,22.66
2018-08-17T11:52:33.525Z,22.66
2018-08-17T11:53:34.156Z,22.66
2018-08-17T11:54:33.673Z,22.66
2018-08-17T11:55:33.852Z,22.66
2018-08-17T11:56:33.752Z,22.66
2018-08-17T11:57:33.870Z,22.66
2018-08-17T11:58:33.837Z,22.66
2018-08-17T11:59:34.096Z,22.66
2018-08-17T12:00:34.093Z,22.66
2018-08-17T12:01:33.492Z,22.66
2018-08-17T12:02:33.745Z,22.66
2018-08-17T12:03:33.729Z,22.66
2018-08-17T12:04:33.925Z,22.66
2018-08-17T12:05:34.279Z,22.66
2018-08-17T12:06:34.072Z,22.66
2018-08-17T12:07:33.957Z,22.66
2018-08-17T12:08:34.370Z,22.66
2018-08-17T12:09:33.821Z,22.66
2018-08-17T12:10:33.575Z,22.66
2018-08-17T12:11:33.743Z,22.67
2018-08-17T12:12:33.884Z,22.68
2018-08-17T12:13:33.791Z,22.7
2018-08-17T12:14:33.503Z,22.7
2018-08-17T12:15:33.668Z,22.7
2018-08-17T12:16:33.787Z,22.69
2018-08-17T12:17:33.987Z,22.68
2018-08-17T12:18:33.931Z,22.68
2018-08-17T12:19:33.804Z,22.68
2018-08-17T12:20:33.813Z,22.69
2018-08-17T12:21:33.711Z,22.69
2018-08-17T12:22:33.874Z,22.69
2018-08-17T12:23:33.729Z,22.68
2018-08-17T12:24:35.156Z,22.68
2018-08-17T12:25:33.742Z,22.68
2018-08-17T12:26:34.099Z,22.68
2018-08-17T12:27:33.711Z,22.7
2018-08-17T12:28:33.625Z,22.7
2018-08-17T12:29:33.851Z,22.7
2018-08-17T12:30:33.772Z,22.7
2018-08-17T12:31:33.791Z,22.7
2018-08-17T12:32:33.519Z,22.7
2018-08-17T12:33:33.812Z,22.71
2018-08-17T12:34:33.825Z,22.66
2018-08-17T12:35:34.085Z,22.68
2018-08-17T12:36:33.555Z,22.66
2018-08-17T12:37:33.513Z,22.67
2018-08-17T12:38:33.774Z,22.66
2018-08-17T12:39:34.242Z,22.66
2018-08-17T12:40:33.819Z,22.64
2018-08-17T12:41:33.574Z,22.64
2018-08-17T12:42:33.658Z,22.64
2018-08-17T12:43:33.723Z,22.64
2018-08-17T12:44:33.914Z,22.65
2018-08-17T12:45:33.809Z,22.66
2018-08-17T12:46:34.316Z,22.67
2018-08-17T12:47:33.898Z,22.67
2018-08-17T12:48:33.531Z,22.67
2018-08-17T12:49:33.699Z,22.67
2018-08-17T12:50:33.932Z,22.67
2018-08-17T12:51:33.565Z,22.68
2018-08-17T12:52:33.759Z,22.67
2018-08-17T12:53:33.864Z,22.67
2018-08-17T12:54:33.641Z,22.67
2018-08-17T12:55:33.716Z,22.7